createdAt,value
2023-01-20T00:06:59.226Z,1.1
2023-01-20T00:16:59.455Z,1.1
2023-01-20T00:37:00.440Z,1
2023-01-20T00:47:00.770Z,1
2023-01-20T00:57:01.643Z,0.9
2023-01-20T01:07:01.908Z,0.8
2023-01-20T01:17:02.039Z,0.8
2023-01-20T01:27:02.716Z,0.8
2023-01-20T01:37:03.247Z,0.8
2023-01-20T01:47:04.195Z,0.8
2023-01-20T01:57:04.483Z,0.8
2023-01-20T02:07:05.067Z,0.8
2023-01-20T02:17:05.056Z,0.8
2023-01-20T02:27:06.033Z,0.8
2023-01-20T02:37:06.550Z,0.8
2023-01-20T02:47:07.382Z,0.7
2023-01-20T02:57:08.363Z,0.6
2023-01-20T03:07:08.979Z,0.7
2023-01-20T03:17:09.331Z,0.7
2023-01-20T03:27:09.781Z,0.7
2023-01-20T03:37:10.592Z,0.8
2023-01-20T03:47:11.046Z,0.8
2023-01-20T03:57:12.163Z,0.8
2023-01-20T04:07:12.843Z,0.8
2023-01-20T04:17:13.878Z,0.8
2023-01-20T04:27:14.339Z,0.8
2023-01-20T04:37:14.503Z,0.8
2023-01-20T04:47:15.514Z,0.8
2023-01-20T04:57:16.190Z,0.8
2023-01-20T05:07:17.011Z,0.9
2023-01-20T05:17:17.742Z,0.9
2023-01-20T05:27:18.520Z,0.9
2023-01-20T05:37:18.998Z,0.9
2023-01-20T05:47:19.375Z,0.8
2023-01-20T05:57:20.047Z,0.8
2023-01-20T06:07:20.858Z,0.9
2023-01-20T06:17:21.551Z,0.8
2023-01-20T06:27:21.790Z,0.8
2023-01-20T06:37:22.278Z,0.8
2023-01-20T06:47:23.339Z,0.8
2023-01-20T06:57:23.924Z,0.8
2023-01-20T07:07:24.725Z,0.9
2023-01-20T07:17:24.961Z,0.9
2023-01-20T07:27:25.250Z,0.9
2023-01-20T07:37:26.223Z,1
2023-01-20T07:47:27.011Z,1.1
2023-01-20T07:57:27.722Z,1.1
2023-01-20T08:07:28.588Z,1.3
2023-01-20T08:17:29.629Z,1.3
2023-01-20T08:27:30.554Z,1.4
2023-01-20T08:37:31.452Z,1.4
2023-01-20T08:47:32.047Z,1.4
2023-01-20T08:57:32.665Z,1.5
2023-01-20T09:07:33.156Z,1.5
2023-01-20T09:17:33.846Z,1.6
2023-01-20T09:27:34.264Z,1.6
2023-01-20T09:37:34.480Z,1.7
2023-01-20T09:47:34.811Z,1.8
2023-01-20T09:57:35.719Z,1.8
2023-01-20T10:07:36.822Z,1.9
2023-01-20T10:17:37.419Z,1.9
2023-01-20T10:37:38.396Z,2
2023-01-20T10:57:39.653Z,2.1
2023-01-20T11:07:40.646Z,2.2
2023-01-20T11:17:40.870Z,2.3
2023-01-20T11:37:41.962Z,2.2
2023-01-20T11:47:42.368Z,2.3
2023-01-20T11:57:42.811Z,2.4
2023-01-20T12:07:43.474Z,2.4
2023-01-20T12:17:43.953Z,2.4
2023-01-20T12:27:44.563Z,2.5
2023-01-20T12:37:44.801Z,2.5
2023-01-20T12:47:45.530Z,2.6
2023-01-20T12:57:45.767Z,2.6
2023-01-20T13:07:46.373Z,2.7
2023-01-20T13:17:46.486Z,2.8
2023-01-20T13:27:47.491Z,2.8
2023-01-20T13:37:47.980Z,2.9
2023-01-20T13:47:48.559Z,2.9
2023-01-20T13:57:49.032Z,3
2023-01-20T14:07:50.024Z,3
2023-01-20T14:17:50.370Z,3
2023-01-20T14:27:51.276Z,3.1
2023-01-20T14:37:51.801Z,3.1
2023-01-20T14:57:52.786Z,3
2023-01-20T15:07:53.100Z,3
2023-01-20T15:17:53.955Z,2.9
2023-01-20T15:37:54.610Z,2.7
2023-01-20T15:57:55.695Z,2.5
2023-01-20T16:07:55.988Z,2.3
2023-01-20T16:17:57.079Z,2.2
2023-01-20T16:27:57.974Z,2.1
2023-01-20T16:37:58.384Z,2
2023-01-20T16:47:58.972Z,1.9
2023-01-20T16:57:59.952Z,1.8
2023-01-20T17:08:00.406Z,1.7
2023-01-20T17:18:00.541Z,1.4
2023-01-20T17:28:00.918Z,1.2
2023-01-20T17:38:01.634Z,1
2023-01-20T17:48:04.364Z,0.8
2023-01-20T17:58:02.565Z,0.6
2023-01-20T18:08:03.543Z,0.6
2023-01-20T18:18:03.959Z,0.6
2023-01-20T18:28:04.576Z,0.5
2023-01-20T18:38:05.212Z,0.5
2023-01-20T18:48:05.642Z,0.4
2023-01-20T18:58:06.045Z,0.2
2023-01-20T19:18:06.991Z,0
2023-01-20T19:28:07.523Z,-0.1
2023-01-20T19:38:08.360Z,-0.2
2023-01-20T19:48:08.867Z,-0.2
2023-01-20T19:58:09.917Z,-0.3
2023-01-20T20:08:10.534Z,-0.3
2023-01-20T20:18:11.180Z,-0.3
2023-01-20T20:38:11.542Z,-0.2
2023-01-20T20:48:11.825Z,-0.3
2023-01-20T20:58:12.635Z,-0.4
2023-01-20T21:18:14.051Z,-0.5
2023-01-20T21:28:14.269Z,-0.5
2023-01-20T21:38:14.731Z,-0.5
2023-01-20T21:48:14.950Z,-0.5
2023-01-20T21:58:15.098Z,-0.5
2023-01-20T22:08:16.041Z,-0.5
2023-01-20T22:18:16.939Z,-0.5
2023-01-20T22:28:17.664Z,-0.5
2023-01-20T22:38:18.028Z,-0.7
2023-01-20T22:48:19.074Z,-0.9
2023-01-20T22:58:19.596Z,-0.9
2023-01-20T22:58:41.512Z,-0.9
2023-01-20T23:18:26.415Z,-1
2023-01-20T23:28:27.489Z,-1
2023-01-20T23:38:27.992Z,-0.9
2023-01-20T23:58:29.757Z,-0.9
